Time;durP1;ratioP1;P1;durP2;ratioP2;P2;SDS_P1;SDS_P2;PMS_P1;PMS_P2;Temp;Humidity;BMP_temperature;BMP_pressure;BME280_temperature;BME280_humidity;BME280_pressure;Samples;Min_cycle;Max_cycle;Signal;HPM_P1;HPM_P2
2023/07/06 00:01:33;;;;;;;12.10;4.78;;;;;;;;;;21008705;28;20080;-67
2023/07/06 00:11:38;;;;;;;7.88;5.15;;;;;;;;;;21007862;28;20486;-68
2023/07/06 00:21:40;;;;;;;9.43;5.22;;;;;;;;;;21007212;28;20546;-68
2023/07/06 00:31:51;;;;;;;11.57;6.13;;;;;;;;;;21005973;28;20064;-67
2023/07/06 00:41:52;;;;;;;10.85;5.50;;;;;;;;;;21004323;28;20032;-67
2023/07/06 00:51:53;;;;;;;9.35;5.40;;;;;;;;;;21004422;28;20041;-68
2023/07/06 01:01:55;;;;;;;11.65;5.60;;;;;;;;;;21003913;28;20508;-68
2023/07/06 01:11:56;;;;;;;13.02;5.47;;;;;;;;;;21002357;28;20048;-68
2023/07/06 01:22:09;;;;;;;9.50;4.50;;;;;;;;;;21002625;28;20075;-67
2023/07/06 01:32:16;;;;;;;11.60;4.95;;;;;;;;;;21001131;28;20064;-69
2023/07/06 01:42:27;;;;;;;10.52;4.43;;;;;;;;;;20999731;28;20080;-68
2023/07/06 01:52:34;;;;;;;17.33;4.40;;;;;;;;;;21000422;28;20046;-68
2023/07/06 02:02:36;;;;;;;12.95;3.92;;;;;;;;;;20999412;28;20060;-67
2023/07/06 02:12:37;;;;;;;5.85;3.97;;;;;;;;;;20997885;28;20051;-68
2023/07/06 02:22:39;;;;;;;10.43;3.65;;;;;;;;;;20998099;28;20057;-67
2023/07/06 02:32:40;;;;;;;7.53;3.70;;;;;;;;;;20996890;28;20529;-68
2023/07/06 02:42:41;;;;;;;5.70;3.10;;;;;;;;;;20996988;28;20502;-67
2023/07/06 02:52:44;;;;;;;7.85;3.13;;;;;;;;;;20996909;28;20493;-68
2023/07/06 03:02:48;;;;;;;7.43;3.30;;;;;;;;;;20995091;28;20124;-68
2023/07/06 03:12:49;;;;;;;6.60;3.30;;;;;;;;;;20995956;28;20045;-68
2023/07/06 03:22:51;;;;;;;4.85;3.22;;;;;;;;;;21002935;28;20102;-67
2023/07/06 03:32:54;;;;;;;10.88;5.97;;;;;;;;;;21010671;28;20101;-68
2023/07/06 03:42:56;;;;;;;6.32;2.95;;;;;;;;;;21009221;28;20063;-68
2023/07/06 03:52:58;;;;;;;6.68;3.80;;;;;;;;;;21008480;28;20036;-68
2023/07/06 04:03:03;;;;;;;6.20;3.38;;;;;;;;;;21008960;28;20055;-68
2023/07/06 04:13:04;;;;;;;4.97;2.78;;;;;;;;;;21008458;28;20482;-68
2023/07/06 04:23:06;;;;;;;5.72;3.17;;;;;;;;;;21007455;28;20052;-68
2023/07/06 04:33:09;;;;;;;5.57;3.53;;;;;;;;;;21005211;28;20505;-68
2023/07/06 04:43:11;;;;;;;4.90;3.08;;;;;;;;;;21005465;28;20123;-68
2023/07/06 04:53:12;;;;;;;4.70;3.60;;;;;;;;;;21003236;28;20076;-68
2023/07/06 05:03:13;;;;;;;8.55;3.72;;;;;;;;;;21004125;28;20131;-68
2023/07/06 05:13:15;;;;;;;7.70;3.63;;;;;;;;;;21003287;28;20101;-69
2023/07/06 05:23:20;;;;;;;7.28;3.60;;;;;;;;;;21003510;28;20166;-68
2023/07/06 05:33:21;;;;;;;5.70;4.10;;;;;;;;;;21001029;28;20056;-68
2023/07/06 05:43:22;;;;;;;7.65;3.67;;;;;;;;;;20999428;28;20054;-68
2023/07/06 05:53:23;;;;;;;6.00;3.30;;;;;;;;;;21000095;28;20048;-69
2023/07/06 06:03:24;;;;;;;6.38;3.35;;;;;;;;;;20999256;28;20124;-68
2023/07/06 06:13:27;;;;;;;5.90;3.35;;;;;;;;;;20998775;28;20051;-67
2023/07/06 06:23:28;;;;;;;7.78;3.50;;;;;;;;;;20997736;28;20117;-68
2023/07/06 06:33:29;;;;;;;11.23;4.82;;;;;;;;;;20996839;28;20386;-67
2023/07/06 06:43:30;;;;;;;4.85;3.30;;;;;;;;;;20996927;28;20076;-68
2023/07/06 06:53:33;;;;;;;8.82;3.95;;;;;;;;;;20997773;28;20041;-68
2023/07/06 07:03:34;;;;;;;6.40;2.88;;;;;;;;;;21022365;28;20052;-68
2023/07/06 07:13:36;;;;;;;5.78;3.05;;;;;;;;;;21022934;28;20053;-68
2023/07/06 07:23:40;;;;;;;8.68;3.28;;;;;;;;;;21022968;28;20106;-68
2023/07/06 07:33:42;;;;;;;7.78;3.42;;;;;;;;;;21022223;28;20060;-68
2023/07/06 07:43:43;;;;;;;7.97;3.63;;;;;;;;;;21022528;28;20048;-68
2023/07/06 07:53:44;;;;;;;5.80;3.55;;;;;;;;;;21022119;28;20474;-68
2023/07/06 08:03:46;;;;;;;7.47;3.35;;;;;;;;;;21021728;28;20051;-68
2023/07/06 08:13:50;;;;;;;9.75;4.03;;;;;;;;;;21006191;28;20044;-69
2023/07/06 08:23:54;;;;;;;9.47;3.80;;;;;;;;;;21007236;28;20121;-69
2023/07/06 08:33:58;;;;;;;5.75;3.20;;;;;;;;;;21004920;28;20058;-69
2023/07/06 08:44:04;;;;;;;6.00;3.30;;;;;;;;;;21005535;28;20509;-68
2023/07/06 08:54:11;;;;;;;11.40;3.72;;;;;;;;;;21003835;28;20044;-69
2023/07/06 09:04:16;;;;;;;4.93;3.25;;;;;;;;;;21002843;28;20075;-64
2023/07/06 09:14:19;;;;;;;7.00;3.57;;;;;;;;;;21002474;28;20044;-64
2023/07/06 09:24:27;;;;;;;7.80;3.28;;;;;;;;;;21000291;28;20044;-65
2023/07/06 09:34:32;;;;;;;9.65;3.67;;;;;;;;;;21000439;28;20544;-65
2023/07/06 09:44:34;;;;;;;8.10;3.63;;;;;;;;;;21000720;28;20521;-65
2023/07/06 09:54:43;;;;;;;7.18;3.58;;;;;;;;;;20997587;28;20043;-64
2023/07/06 10:04:50;;;;;;;9.18;3.60;;;;;;;;;;20997869;28;20041;-61
2023/07/06 10:14:51;;;;;;;8.15;3.08;;;;;;;;;;20996957;28;20109;-60
2023/07/06 10:25:01;;;;;;;5.55;2.97;;;;;;;;;;20994769;28;20075;-61
2023/07/06 10:35:05;;;;;;;8.00;3.40;;;;;;;;;;20993218;28;20059;-76
2023/07/06 10:45:22;;;;;;;6.47;3.20;;;;;;;;;;20994609;28;20120;-76
2023/07/06 10:55:23;;;;;;;7.22;3.08;;;;;;;;;;20995297;28;20067;-76
2023/07/06 11:05:28;;;;;;;8.20;3.35;;;;;;;;;;20994437;28;20036;-70
2023/07/06 11:16:02;;;;;;;7.13;3.25;;;;;;;;;;20995347;28;20379;-69
2023/07/06 11:26:08;;;;;;;6.80;3.15;;;;;;;;;;20993906;28;20048;-75
2023/07/06 11:36:16;;;;;;;5.43;2.70;;;;;;;;;;20994168;28;20060;-76
2023/07/06 11:46:35;;;;;;;7.97;2.92;;;;;;;;;;21004481;28;20052;-75
2023/07/06 11:57:13;;;;;;;5.22;2.63;;;;;;;;;;21009279;28;20040;-72
2023/07/06 12:07:21;;;;;;;12.88;8.38;;;;;;;;;;21006942;28;20045;-74
2023/07/06 12:17:22;;;;;;;10.75;6.70;;;;;;;;;;21005926;28;20040;-73
2023/07/06 12:27:23;;;;;;;8.68;3.75;;;;;;;;;;21006079;28;20051;-72
2023/07/06 12:37:24;;;;;;;5.03;2.60;;;;;;;;;;21004675;28;20065;-71
2023/07/06 12:47:31;;;;;;;8.82;3.70;;;;;;;;;;21004860;28;20044;-73
2023/07/06 12:57:36;;;;;;;4.90;2.75;;;;;;;;;;21002410;28;20043;-73
2023/07/06 13:07:37;;;;;;;7.47;3.20;;;;;;;;;;21003291;28;20135;-72
2023/07/06 13:17:38;;;;;;;4.50;2.72;;;;;;;;;;21002893;28;20045;-73
2023/07/06 13:27:39;;;;;;;8.70;2.90;;;;;;;;;;21002130;28;20048;-71
2023/07/06 13:37:42;;;;;;;6.75;2.33;;;;;;;;;;21000173;28;20075;-73
2023/07/06 13:47:44;;;;;;;9.68;2.80;;;;;;;;;;20998995;28;20088;-72
2023/07/06 13:57:45;;;;;;;5.63;2.03;;;;;;;;;;20999505;28;20053;-73
2023/07/06 14:07:47;;;;;;;8.45;2.58;;;;;;;;;;20997298;28;20121;-72
2023/07/06 14:17:48;;;;;;;4.80;2.63;;;;;;;;;;20997800;28;20461;-72
2023/07/06 14:27:49;;;;;;;6.85;2.92;;;;;;;;;;20997535;28;20508;-72
2023/07/06 14:37:51;;;;;;;6.20;3.47;;;;;;;;;;20995510;28;20113;-72
2023/07/06 14:47:52;;;;;;;6.75;2.58;;;;;;;;;;20996210;28;20560;-73
2023/07/06 14:57:53;;;;;;;4.05;2.58;;;;;;;;;;20996385;28;20177;-73
2023/07/06 15:07:54;;;;;;;5.50;2.38;;;;;;;;;;20994778;28;20044;-73
2023/07/06 15:17:55;;;;;;;4.35;2.38;;;;;;;;;;21000772;28;20050;-73
2023/07/06 15:27:56;;;;;;;7.65;2.30;;;;;;;;;;21010462;28;20127;-73
2023/07/06 15:37:57;;;;;;;3.13;1.67;;;;;;;;;;21010093;28;20060;-73
2023/07/06 15:47:58;;;;;;;5.95;2.67;;;;;;;;;;21010054;28;20053;-72
2023/07/06 15:58:00;;;;;;;8.95;2.35;;;;;;;;;;21009223;28;20040;-73
2023/07/06 16:08:01;;;;;;;3.83;2.22;;;;;;;;;;21006793;28;20037;-73
2023/07/06 16:18:02;;;;;;;10.90;5.63;;;;;;;;;;21005342;28;20048;-74
2023/07/06 16:28:04;;;;;;;4.28;2.28;;;;;;;;;;21005654;28;20128;-74
2023/07/06 16:38:05;;;;;;;5.95;2.20;;;;;;;;;;21005413;28;20115;-72
2023/07/06 16:48:06;;;;;;;3.58;2.08;;;;;;;;;;21006066;28;20421;-72
2023/07/06 16:58:07;;;;;;;3.15;2.13;;;;;;;;;;21005131;28;20501;-73
2023/07/06 17:08:08;;;;;;;5.25;2.40;;;;;;;;;;21004470;28;20036;-72
2023/07/06 17:18:09;;;;;;;7.88;2.85;;;;;;;;;;21003683;28;20075;-72
2023/07/06 17:28:10;;;;;;;6.30;3.30;;;;;;;;;;21001843;28;20045;-73
2023/07/06 17:38:12;;;;;;;6.53;2.75;;;;;;;;;;20999949;28;20056;-73
2023/07/06 17:48:13;;;;;;;5.20;2.75;;;;;;;;;;21000492;28;20549;-68
2023/07/06 17:58:15;;;;;;;4.90;2.60;;;;;;;;;;20997956;28;20049;-68
2023/07/06 18:08:17;;;;;;;6.65;2.28;;;;;;;;;;20998401;28;20493;-68
2023/07/06 18:18:18;;;;;;;13.18;3.03;;;;;;;;;;20996811;28;20047;-68
2023/07/06 18:28:19;;;;;;;9.02;2.63;;;;;;;;;;20995906;28;20060;-68
2023/07/06 18:38:21;;;;;;;35.97;4.95;;;;;;;;;;20995624;28;20053;-68
2023/07/06 18:48:22;;;;;;;44.03;8.38;;;;;;;;;;20996338;28;20537;-69
2023/07/06 18:58:23;;;;;;;10.70;5.07;;;;;;;;;;20995243;28;20506;-69
2023/07/06 19:08:25;;;;;;;8.73;4.88;;;;;;;;;;20994836;28;20496;-68
2023/07/06 19:18:26;;;;;;;17.50;9.63;;;;;;;;;;20993157;28;20052;-68
2023/07/06 19:28:27;;;;;;;4.85;2.85;;;;;;;;;;20994085;28;20478;-68
2023/07/06 19:38:28;;;;;;;5.65;3.85;;;;;;;;;;20995878;28;20474;-70
2023/07/06 19:48:29;;;;;;;7.95;3.97;;;;;;;;;;20993073;28;20526;-68
2023/07/06 19:58:30;;;;;;;6.85;2.78;;;;;;;;;;20990997;28;20041;-68
2023/07/06 20:08:31;;;;;;;5.53;2.38;;;;;;;;;;21003729;28;20044;-68
2023/07/06 20:18:33;;;;;;;5.05;3.00;;;;;;;;;;21006300;28;20039;-67
2023/07/06 20:28:34;;;;;;;8.73;4.43;;;;;;;;;;21004651;28;20128;-69
2023/07/06 20:38:35;;;;;;;11.27;2.85;;;;;;;;;;21004543;28;20509;-68
2023/07/06 20:48:36;;;;;;;6.45;2.67;;;;;;;;;;21004511;28;20045;-67
2023/07/06 20:58:37;;;;;;;6.68;2.47;;;;;;;;;;21003518;28;20114;-68
2023/07/06 21:08:39;;;;;;;5.80;3.25;;;;;;;;;;21003619;28;20086;-67
2023/07/06 21:18:40;;;;;;;6.18;2.88;;;;;;;;;;21002572;28;20067;-68
2023/07/06 21:28:41;;;;;;;10.85;2.38;;;;;;;;;;21000585;28;20048;-67
2023/07/06 21:38:42;;;;;;;7.30;2.33;;;;;;;;;;21000436;28;20064;-68
2023/07/06 21:48:44;;;;;;;4.57;2.55;;;;;;;;;;20999557;28;20044;-68
2023/07/06 21:58:45;;;;;;;8.73;2.97;;;;;;;;;;20999676;28;20527;-68
2023/07/06 22:08:46;;;;;;;6.30;2.45;;;;;;;;;;20997934;28;20050;-68
2023/07/06 22:18:47;;;;;;;6.63;2.60;;;;;;;;;;20998426;28;20506;-68
2023/07/06 22:28:51;;;;;;;5.47;2.88;;;;;;;;;;20996806;28;20044;-69
2023/07/06 22:38:52;;;;;;;4.63;2.72;;;;;;;;;;20996031;28;20067;-68
2023/07/06 22:48:53;;;;;;;8.40;3.40;;;;;;;;;;20995875;28;20048;-68
2023/07/06 22:58:54;;;;;;;5.25;2.90;;;;;;;;;;20996916;28;20036;-68
2023/07/06 23:08:57;;;;;;;11.70;3.72;;;;;;;;;;20996201;28;20047;-68
2023/07/06 23:18:59;;;;;;;6.70;2.70;;;;;;;;;;20996444;28;20110;-68
2023/07/06 23:29:00;;;;;;;9.65;3.55;;;;;;;;;;20995872;28;20052;-68
2023/07/06 23:39:02;;;;;;;8.65;3.53;;;;;;;;;;21000121;28;20048;-68
2023/07/06 23:49:03;;;;;;;8.15;3.30;;;;;;;;;;21010631;28;20048;-67
2023/07/06 23:59:04;;;;;;;11.35;3.17;;;;;;;;;;21010408;28;20486;-67
